createdAt,value
2017-07-04T00:01:40.715Z,8.83
2017-07-04T00:04:09.713Z,8.30
2017-07-04T00:06:39.632Z,9.48
2017-07-04T00:09:08.634Z,7.87
2017-07-04T00:11:37.622Z,10.52
2017-07-04T00:14:06.609Z,12.18
2017-07-04T00:16:35.654Z,8.38
2017-07-04T00:19:04.605Z,8.98
2017-07-04T00:21:33.549Z,9.85
2017-07-04T00:24:02.841Z,9.17
2017-07-04T00:26:31.860Z,12.90
2017-07-04T00:29:00.839Z,9.38
2017-07-04T00:31:29.850Z,8.90
2017-07-04T00:33:58.859Z,11.13
2017-07-04T00:36:27.848Z,10.52
2017-07-04T00:38:56.882Z,8.65
2017-07-04T00:41:25.834Z,7.47
2017-07-04T00:43:54.830Z,11.50
2017-07-04T00:46:23.812Z,8.48
2017-07-04T00:48:52.756Z,10.77
2017-07-04T00:51:21.808Z,7.93
2017-07-04T00:53:50.768Z,8.93
2017-07-04T00:56:19.846Z,7.97
2017-07-04T00:58:48.855Z,9.75
2017-07-04T01:01:20.814Z,8.60
2017-07-04T01:03:49.845Z,8.03
2017-07-04T01:06:18.801Z,9.65
2017-07-04T01:08:47.745Z,7.57
2017-07-04T01:11:16.747Z,12.93
2017-07-04T01:13:45.706Z,8.20
2017-07-04T01:16:14.709Z,8.13
2017-07-04T01:18:43.739Z,11.00
2017-07-04T01:21:12.711Z,11.00
2017-07-04T01:23:41.684Z,8.60
2017-07-04T01:26:10.929Z,8.50
2017-07-04T01:28:39.930Z,9.68
2017-07-04T01:31:08.975Z,13.93
2017-07-04T01:33:37.968Z,10.05
2017-07-04T01:36:06.957Z,9.65
2017-07-04T01:38:35.982Z,11.38
2017-07-04T01:41:04.933Z,9.82
2017-07-04T01:43:33.957Z,9.00
2017-07-04T01:46:02.978Z,9.55
2017-07-04T01:48:31.998Z,15.25
2017-07-04T01:51:00.996Z,10.10
2017-07-04T01:53:30.004Z,13.90
2017-07-04T01:55:59.002Z,12.52
2017-07-04T01:58:27.991Z,10.95
2017-07-04T02:00:57.000Z,12.52
2017-07-04T02:03:25.991Z,11.68
2017-07-04T02:05:54.993Z,11.38
2017-07-04T02:08:23.967Z,12.48
2017-07-04T02:10:52.956Z,11.48
2017-07-04T02:13:21.938Z,16.25
2017-07-04T02:15:50.922Z,11.45
2017-07-04T02:18:20.236Z,11.95
2017-07-04T02:20:49.304Z,12.50
2017-07-04T02:23:18.320Z,10.35
2017-07-04T02:25:47.279Z,11.07
2017-07-04T02:28:16.262Z,11.05
2017-07-04T02:30:45.220Z,11.65
2017-07-04T02:33:14.176Z,11.68
2017-07-04T02:35:49.556Z,13.48
2017-07-04T02:38:18.530Z,12.48
2017-07-04T02:40:47.518Z,10.10
2017-07-04T02:43:16.617Z,11.10
2017-07-04T02:45:45.628Z,10.73
2017-07-04T02:48:14.708Z,9.43
2017-07-04T02:50:43.710Z,11.00
2017-07-04T02:53:12.715Z,11.63
2017-07-04T02:55:41.714Z,8.77
2017-07-04T02:59:12.974Z,11.20
2017-07-04T03:01:41.992Z,14.70
2017-07-04T03:04:11.309Z,13.48
2017-07-04T03:06:40.686Z,9.68
2017-07-04T03:09:09.932Z,12.77
2017-07-04T03:11:38.928Z,17.35
2017-07-04T03:15:27.028Z,14.50
2017-07-04T03:17:56.365Z,12.80
2017-07-04T03:20:25.335Z,12.85
2017-07-04T03:22:54.344Z,13.32
2017-07-04T03:25:23.346Z,12.00
2017-07-04T03:27:52.413Z,11.43
2017-07-04T03:30:21.439Z,15.65
2017-07-04T03:32:50.438Z,14.80
2017-07-04T03:35:19.437Z,13.10
2017-07-04T03:37:48.417Z,13.77
2017-07-04T03:40:17.353Z,13.60
2017-07-04T03:42:46.325Z,11.52
2017-07-04T03:45:15.293Z,13.23
2017-07-04T03:47:44.301Z,11.98
2017-07-04T03:50:13.269Z,13.05
2017-07-04T03:52:42.530Z,12.13
2017-07-04T03:55:12.225Z,11.93
2017-07-04T03:57:41.273Z,11.43
2017-07-04T04:00:10.973Z,12.70
2017-07-04T04:02:39.965Z,12.73
2017-07-04T04:05:09.276Z,12.00
2017-07-04T04:07:38.270Z,13.45
2017-07-04T04:10:07.225Z,17.85
2017-07-04T04:12:36.161Z,13.48
2017-07-04T04:15:05.148Z,16.45
2017-07-04T04:17:34.212Z,18.80
2017-07-04T04:20:03.277Z,14.45
2017-07-04T04:22:32.272Z,14.57
2017-07-04T04:25:01.278Z,13.02
2017-07-04T04:27:30.257Z,13.73
2017-07-04T04:29:59.231Z,15.57
2017-07-04T04:32:28.231Z,14.30
2017-07-04T04:34:57.254Z,12.77
2017-07-04T04:37:26.239Z,12.77
2017-07-04T04:39:55.226Z,14.55
2017-07-04T04:42:24.234Z,14.95
2017-07-04T04:44:53.329Z,12.65
2017-07-04T04:47:22.401Z,10.80
2017-07-04T04:49:51.369Z,15.07
2017-07-04T04:52:20.370Z,21.65
2017-07-04T04:54:49.372Z,14.50
2017-07-04T04:57:18.693Z,10.43
2017-07-04T04:59:47.766Z,10.53
2017-07-04T05:02:16.726Z,9.07
2017-07-04T05:04:45.744Z,9.03
2017-07-04T05:07:14.764Z,11.07
2017-07-04T05:09:43.762Z,10.20
2017-07-04T05:12:13.146Z,8.03
2017-07-04T05:14:42.166Z,10.60
2017-07-04T05:17:11.183Z,8.77
2017-07-04T05:19:40.150Z,9.07
2017-07-04T05:22:09.212Z,10.33
2017-07-04T05:24:38.182Z,8.77
2017-07-04T05:27:07.273Z,8.03
2017-07-04T05:29:36.266Z,7.37
2017-07-04T05:32:05.229Z,13.17
2017-07-04T05:34:34.253Z,9.80
2017-07-04T05:37:03.217Z,12.10
2017-07-04T05:39:32.257Z,11.20
2017-07-04T05:42:01.182Z,9.37
2017-07-04T05:44:30.326Z,10.27
2017-07-04T05:46:59.311Z,9.87
2017-07-04T05:49:28.277Z,13.63
2017-07-04T05:51:57.212Z,8.63
2017-07-04T05:54:26.231Z,9.50
2017-07-04T05:56:55.249Z,12.57
2017-07-04T05:59:24.271Z,9.43
2017-07-04T06:01:53.640Z,8.67
2017-07-04T06:04:22.681Z,11.43
2017-07-04T06:06:51.722Z,9.23
2017-07-04T06:09:20.739Z,9.97
2017-07-04T06:11:49.898Z,9.90
2017-07-04T06:14:18.976Z,12.57
2017-07-04T06:16:47.965Z,8.13
2017-07-04T06:19:17.045Z,10.47
2017-07-04T06:21:46.186Z,10.80
2017-07-04T06:24:15.339Z,9.63
2017-07-04T06:26:44.497Z,10.53
2017-07-04T06:29:13.858Z,9.83
2017-07-04T06:31:42.967Z,10.60
2017-07-04T06:34:12.139Z,8.60
2017-07-04T06:36:42.440Z,8.37
2017-07-04T06:39:11.498Z,10.03
2017-07-04T06:41:40.499Z,8.00
2017-07-04T06:44:10.101Z,10.43
2017-07-04T06:46:39.161Z,8.33
2017-07-04T06:49:08.626Z,8.10
2017-07-04T06:51:37.647Z,11.67
2017-07-04T06:54:06.892Z,8.60
2017-07-04T06:56:35.913Z,13.57
2017-07-04T06:59:05.673Z,8.70
2017-07-04T07:01:34.746Z,8.07
2017-07-04T07:04:03.747Z,12.50
2017-07-04T07:06:32.822Z,7.37
2017-07-04T07:09:01.850Z,8.03
2017-07-04T07:11:31.000Z,7.53
2017-07-04T07:13:59.993Z,9.20
2017-07-04T07:16:28.984Z,9.50
2017-07-04T07:18:57.932Z,6.70
2017-07-04T07:21:26.978Z,10.10
2017-07-04T07:23:56.300Z,6.30
2017-07-04T07:26:25.555Z,5.13
2017-07-04T07:28:54.651Z,6.50
2017-07-04T07:31:23.765Z,11.27
2017-07-04T07:33:52.813Z,5.77
2017-07-04T07:36:22.274Z,6.87
2017-07-04T07:38:51.455Z,11.17
2017-07-04T07:41:20.489Z,8.67
2017-07-04T07:43:49.495Z,10.47
2017-07-04T07:46:18.496Z,10.73
2017-07-04T07:48:47.479Z,7.73
2017-07-04T07:51:16.458Z,7.70
2017-07-04T07:53:45.442Z,8.80
2017-07-04T07:56:14.418Z,10.50
2017-07-04T07:58:43.405Z,8.30
2017-07-04T08:01:12.560Z,10.33
2017-07-04T08:03:41.631Z,7.60
2017-07-04T08:06:10.624Z,7.17
2017-07-04T08:08:39.661Z,7.87
2017-07-04T08:11:08.702Z,11.50
2017-07-04T08:13:37.702Z,8.20
2017-07-04T08:16:06.664Z,10.20
2017-07-04T08:18:35.661Z,7.80
2017-07-04T08:21:05.034Z,8.60
2017-07-04T08:23:34.072Z,8.73
2017-07-04T08:26:03.093Z,11.13
2017-07-04T08:28:32.185Z,8.63
2017-07-04T08:31:01.266Z,9.70
2017-07-04T08:33:32.201Z,7.60
2017-07-04T08:36:01.218Z,8.23
2017-07-04T08:38:30.248Z,8.60
2017-07-04T08:40:59.259Z,11.53
2017-07-04T08:43:28.271Z,7.97
2017-07-04T08:45:57.259Z,8.60
2017-07-04T08:48:26.229Z,7.67
2017-07-04T08:50:55.276Z,9.30
2017-07-04T08:53:24.262Z,8.40
2017-07-04T08:55:53.353Z,10.03
2017-07-04T08:58:22.402Z,8.20
2017-07-04T09:00:51.910Z,12.57
2017-07-04T09:03:21.046Z,7.63
2017-07-04T09:05:50.117Z,17.30
2017-07-04T09:08:19.234Z,11.00
2017-07-04T09:10:48.347Z,11.43
2017-07-04T09:13:17.518Z,10.90
2017-07-04T09:15:46.513Z,11.03
2017-07-04T09:18:15.476Z,13.57
2017-07-04T09:20:44.536Z,9.10
2017-07-04T09:23:13.605Z,11.57
2017-07-04T09:25:42.695Z,11.80
2017-07-04T09:28:12.084Z,11.57
2017-07-04T09:30:41.277Z,10.03
2017-07-04T09:33:10.314Z,12.60
2017-07-04T09:35:39.569Z,11.33
2017-07-04T09:38:08.584Z,12.80
2017-07-04T09:40:37.580Z,10.57
2017-07-04T09:43:06.567Z,11.43
2017-07-04T09:45:35.640Z,8.67
2017-07-04T09:48:04.605Z,7.13
2017-07-04T09:50:33.594Z,9.83
2017-07-04T09:53:02.804Z,9.77
2017-07-04T09:55:38.172Z,10.20
2017-07-04T09:58:07.201Z,8.47
2017-07-04T10:00:36.213Z,10.07
2017-07-04T10:03:05.269Z,8.40
2017-07-04T10:05:34.245Z,9.57
2017-07-04T10:08:03.284Z,7.57
2017-07-04T10:10:32.436Z,8.93
2017-07-04T10:13:01.525Z,9.33
2017-07-04T10:15:30.604Z,8.03
2017-07-04T10:17:59.645Z,8.43
2017-07-04T10:20:28.645Z,8.73
2017-07-04T10:22:57.801Z,11.37
2017-07-04T10:25:27.101Z,7.53
2017-07-04T10:27:56.789Z,7.93
2017-07-04T10:30:26.820Z,8.00
2017-07-04T10:32:55.952Z,7.30
2017-07-04T10:35:25.025Z,8.60
2017-07-04T10:38:08.667Z,9.10
2017-07-04T10:40:37.699Z,7.90
2017-07-04T10:43:06.876Z,9.67
2017-07-04T10:45:35.903Z,10.27
2017-07-04T10:48:04.946Z,10.00
2017-07-04T10:50:35.014Z,6.67
2017-07-04T10:53:04.154Z,7.07
2017-07-04T10:55:33.345Z,6.97
2017-07-04T10:58:02.703Z,11.87
2017-07-04T11:00:31.756Z,9.73
2017-07-04T11:03:00.875Z,9.30
2017-07-04T11:05:29.904Z,9.03
2017-07-04T11:07:58.949Z,6.60
2017-07-04T11:10:28.006Z,9.20
2017-07-04T11:12:57.038Z,7.87
2017-07-04T11:15:26.055Z,8.63
2017-07-04T11:17:55.559Z,7.80
2017-07-04T11:20:24.629Z,11.30
2017-07-04T11:22:53.981Z,8.10
2017-07-04T11:25:23.063Z,9.30
2017-07-04T11:27:52.190Z,6.70
2017-07-04T11:30:21.441Z,9.90
2017-07-04T11:32:50.554Z,10.37
2017-07-04T11:35:19.576Z,12.43
2017-07-04T11:37:48.622Z,7.30
2017-07-04T11:40:17.937Z,8.17
2017-07-04T11:42:47.034Z,9.67
2017-07-04T11:45:16.058Z,7.20
2017-07-04T11:47:45.119Z,9.73
2017-07-04T11:50:14.270Z,8.07
2017-07-04T11:52:43.540Z,8.30
2017-07-04T11:55:12.757Z,9.43
2017-07-04T11:57:41.803Z,7.77
2017-07-04T12:00:10.895Z,15.57
2017-07-04T12:02:40.011Z,6.93
2017-07-04T12:05:09.050Z,9.50
2017-07-04T12:07:38.081Z,13.87
2017-07-04T12:10:07.194Z,10.03
2017-07-04T12:12:36.458Z,8.77
2017-07-04T12:15:05.745Z,9.83
2017-07-04T12:17:34.772Z,13.97
2017-07-04T12:20:03.860Z,21.47
2017-07-04T12:22:32.977Z,11.90
2017-07-04T12:25:13.541Z,9.70
2017-07-04T12:27:42.654Z,17.80
2017-07-04T12:30:11.776Z,13.17
2017-07-04T12:32:40.849Z,8.90
2017-07-04T12:35:10.018Z,10.53
2017-07-04T12:37:40.198Z,19.07
2017-07-04T12:40:09.276Z,10.07
2017-07-04T12:42:38.345Z,10.63
2017-07-04T12:45:07.381Z,11.27
2017-07-04T12:47:36.448Z,10.97
2017-07-04T12:50:05.508Z,12.10
2017-07-04T12:52:34.608Z,9.53
2017-07-04T12:55:03.658Z,12.03
2017-07-04T12:57:32.728Z,9.60
2017-07-04T13:00:01.899Z,10.93
2017-07-04T13:02:31.059Z,10.57
2017-07-04T13:05:00.101Z,12.53
2017-07-04T13:07:29.189Z,9.60
2017-07-04T13:09:59.081Z,10.70
2017-07-04T13:12:28.137Z,10.80
2017-07-04T13:14:57.174Z,10.57
2017-07-04T13:17:26.167Z,11.03
2017-07-04T13:19:55.209Z,10.13
2017-07-04T13:22:24.392Z,15.17
2017-07-04T13:24:53.556Z,11.40
2017-07-04T13:27:22.709Z,8.73
2017-07-04T13:29:51.800Z,9.80
2017-07-04T13:32:20.931Z,16.00
2017-07-04T13:34:50.042Z,10.67
2017-07-04T13:37:19.382Z,11.10
2017-07-04T13:39:48.433Z,11.40
2017-07-04T13:42:17.487Z,11.80
2017-07-04T13:44:46.517Z,10.03
2017-07-04T13:47:15.506Z,9.30
2017-07-04T13:49:44.503Z,9.43
2017-07-04T13:52:13.620Z,11.13
2017-07-04T13:54:43.611Z,14.20
2017-07-04T13:57:12.795Z,10.03
2017-07-04T13:59:42.806Z,9.37
2017-07-04T14:02:11.901Z,9.30
2017-07-04T14:04:40.982Z,9.33
2017-07-04T14:07:10.030Z,9.13
2017-07-04T14:09:39.129Z,10.03
2017-07-04T14:12:08.210Z,9.90
2017-07-04T14:14:37.181Z,9.33
2017-07-04T14:17:06.289Z,10.53
2017-07-04T14:19:35.307Z,10.80
2017-07-04T14:22:04.318Z,13.27
2017-07-04T14:24:33.363Z,9.70
2017-07-04T14:27:02.465Z,9.80
2017-07-04T14:29:31.530Z,11.13
2017-07-04T14:32:00.557Z,11.17
2017-07-04T14:34:35.839Z,11.83
2017-07-04T14:37:04.953Z,13.97
2017-07-04T14:39:33.983Z,8.83
2017-07-04T14:42:03.190Z,10.47
2017-07-04T14:44:32.474Z,12.50
2017-07-04T14:47:01.646Z,11.40
2017-07-04T14:49:31.491Z,12.10
2017-07-04T14:52:00.639Z,11.13
2017-07-04T14:54:29.609Z,11.80
2017-07-04T14:56:58.766Z,11.83
2017-07-04T14:59:27.809Z,12.60
2017-07-04T15:01:56.927Z,10.73
2017-07-04T15:04:26.268Z,12.23
2017-07-04T15:06:55.391Z,11.13
2017-07-04T15:09:24.618Z,11.70
2017-07-04T15:11:53.733Z,10.13
2017-07-04T15:14:22.856Z,11.37
2017-07-04T15:16:52.022Z,10.50
2017-07-04T15:19:21.590Z,10.90
2017-07-04T15:21:50.924Z,11.93
2017-07-04T15:24:20.088Z,11.27
2017-07-04T15:26:49.162Z,11.40
2017-07-04T15:29:19.113Z,11.40
2017-07-04T15:31:48.222Z,11.83
2017-07-04T15:34:17.298Z,11.13
2017-07-04T15:36:46.577Z,11.60
2017-07-04T15:39:15.695Z,11.57
2017-07-04T15:41:44.759Z,9.77
2017-07-04T15:44:13.862Z,10.13
2017-07-04T15:46:42.901Z,12.07
2017-07-04T15:49:12.051Z,12.13
2017-07-04T15:51:41.031Z,12.87
2017-07-04T15:54:10.051Z,11.47
2017-07-04T15:56:39.099Z,11.20
2017-07-04T15:59:08.142Z,12.17
2017-07-04T16:01:37.247Z,13.50
2017-07-04T16:04:06.402Z,9.43
2017-07-04T16:06:35.564Z,10.20
2017-07-04T16:09:04.850Z,8.90
2017-07-04T16:11:33.853Z,8.60
2017-07-04T16:14:02.855Z,9.57
2017-07-04T16:16:31.897Z,9.97
2017-07-04T16:19:00.920Z,8.87
2017-07-04T16:21:29.980Z,11.03
2017-07-04T16:23:58.974Z,10.27
2017-07-04T16:26:27.969Z,9.10
2017-07-04T16:28:57.031Z,10.27
2017-07-04T16:31:26.069Z,8.47
2017-07-04T16:33:55.108Z,8.03
2017-07-04T16:36:24.121Z,9.00
2017-07-04T16:38:53.143Z,8.77
2017-07-04T16:41:22.190Z,8.20
2017-07-04T16:43:51.206Z,9.10
2017-07-04T16:46:20.197Z,9.40
2017-07-04T16:48:49.187Z,10.00
2017-07-04T16:51:18.230Z,8.60
2017-07-04T16:53:47.395Z,10.03
2017-07-04T16:56:16.513Z,10.17
2017-07-04T16:58:45.528Z,12.43
2017-07-04T17:01:14.671Z,9.70
2017-07-04T17:03:43.665Z,9.93
2017-07-04T17:06:12.945Z,8.47
2017-07-04T17:08:41.950Z,7.90
2017-07-04T17:11:10.999Z,8.33
2017-07-04T17:13:40.063Z,7.53
2017-07-04T17:16:16.240Z,9.20
2017-07-04T17:18:45.377Z,8.93
2017-07-04T17:21:14.528Z,8.73
2017-07-04T17:23:43.587Z,12.93
2017-07-04T17:26:13.131Z,8.67
2017-07-04T17:28:42.304Z,8.53
2017-07-04T17:31:11.344Z,7.27
2017-07-04T17:33:40.663Z,10.33
2017-07-04T17:36:09.861Z,9.50
2017-07-04T17:38:38.961Z,7.47
2017-07-04T17:41:07.983Z,7.40
2017-07-04T17:43:37.365Z,7.10
2017-07-04T17:46:13.514Z,7.10
2017-07-04T17:48:42.552Z,6.13
2017-07-04T17:51:11.552Z,7.70
2017-07-04T17:53:40.733Z,7.00
2017-07-04T17:56:09.694Z,7.10
2017-07-04T17:58:38.762Z,7.00
2017-07-04T18:01:07.926Z,6.73
2017-07-04T18:03:37.130Z,6.37
2017-07-04T18:06:11.594Z,5.73
2017-07-04T18:08:40.611Z,6.77
2017-07-04T18:11:09.643Z,6.53
2017-07-04T18:13:38.699Z,6.60
2017-07-04T18:16:07.755Z,6.70
2017-07-04T18:18:36.825Z,7.97
2017-07-04T18:21:05.953Z,7.00
2017-07-04T18:23:35.054Z,6.30
2017-07-04T18:26:04.126Z,6.60
2017-07-04T18:28:33.198Z,7.00
2017-07-04T18:31:02.239Z,6.80
2017-07-04T18:33:31.417Z,5.67
2017-07-04T18:36:00.495Z,6.07
2017-07-04T18:38:29.631Z,6.80
2017-07-04T18:40:59.246Z,5.87
2017-07-04T18:43:29.654Z,6.23
2017-07-04T18:46:00.742Z,6.37
2017-07-04T18:48:33.489Z,6.10
2017-07-04T18:51:02.621Z,7.53
2017-07-04T18:53:31.675Z,6.40
2017-07-04T18:56:00.710Z,5.90
2017-07-04T18:58:29.755Z,6.43
2017-07-04T19:01:29.348Z,5.53
2017-07-04T19:03:58.539Z,5.57
2017-07-04T19:06:27.649Z,6.80
2017-07-04T19:08:56.789Z,5.33
2017-07-04T19:11:25.861Z,6.43
2017-07-04T19:13:55.154Z,6.67
2017-07-04T19:16:27.385Z,5.63
2017-07-04T19:18:56.616Z,6.57
2017-07-04T19:21:28.708Z,6.77
2017-07-04T19:23:57.936Z,6.60
2017-07-04T19:26:26.936Z,7.57
2017-07-04T19:28:56.329Z,7.00
2017-07-04T19:31:25.388Z,7.90
2017-07-04T19:33:54.440Z,8.07
2017-07-04T19:36:28.911Z,10.00
2017-07-04T19:38:58.020Z,7.10
2017-07-04T19:41:27.215Z,8.63
2017-07-04T19:43:56.284Z,8.03
2017-07-04T19:46:25.307Z,6.50
2017-07-04T19:48:54.421Z,9.37
2017-07-04T19:51:23.547Z,7.40
2017-07-04T19:53:52.751Z,6.80
2017-07-04T19:56:28.338Z,7.17
2017-07-04T19:58:57.522Z,7.80
2017-07-04T20:01:29.997Z,6.13
2017-07-04T20:03:59.174Z,9.37
2017-07-04T20:06:28.754Z,7.80
2017-07-04T20:08:59.408Z,8.00
2017-07-04T20:11:28.802Z,6.93
2017-07-04T20:13:58.032Z,7.53
2017-07-04T20:16:27.076Z,6.70
2017-07-04T20:18:56.139Z,8.30
2017-07-04T20:21:26.819Z,9.10
2017-07-04T20:23:56.151Z,7.90
2017-07-04T20:26:31.544Z,7.23
2017-07-04T20:29:00.675Z,8.37
2017-07-04T20:31:29.919Z,7.17
2017-07-04T20:33:59.128Z,7.10
2017-07-04T20:36:28.187Z,7.27
2017-07-04T20:38:57.235Z,6.67
2017-07-04T20:41:26.638Z,5.60
2017-07-04T20:43:57.189Z,5.00
2017-07-04T20:46:26.366Z,5.93
2017-07-04T20:48:55.437Z,6.17
2017-07-04T20:51:24.465Z,5.43
2017-07-04T20:53:53.433Z,5.40
2017-07-04T20:56:26.361Z,4.70
2017-07-04T20:58:55.391Z,5.13
2017-07-04T21:01:24.473Z,6.20
2017-07-04T21:03:53.585Z,4.10
2017-07-04T21:06:22.587Z,4.37
2017-07-04T21:08:51.570Z,5.97
2017-07-04T21:11:20.585Z,6.00
2017-07-04T21:13:49.573Z,4.37
2017-07-04T21:16:18.610Z,4.90
2017-07-04T21:18:47.665Z,5.63
2017-07-04T21:21:16.760Z,4.67
2017-07-04T21:23:45.842Z,3.57
2017-07-04T21:26:14.865Z,4.30
2017-07-04T21:28:43.895Z,5.47
2017-07-04T21:31:12.928Z,3.80
2017-07-04T21:33:41.960Z,4.30
2017-07-04T21:36:10.930Z,5.63
2017-07-04T21:38:39.932Z,4.78
2017-07-04T21:41:09.001Z,3.97
2017-07-04T21:43:38.595Z,5.53
2017-07-04T21:46:11.224Z,4.30
2017-07-04T21:48:41.199Z,4.77
2017-07-04T21:51:10.679Z,3.07
2017-07-04T21:53:40.587Z,3.90
2017-07-04T21:56:09.962Z,4.63
2017-07-04T21:58:39.390Z,3.13
2017-07-04T22:01:08.395Z,3.33
2017-07-04T22:03:37.390Z,3.10
2017-07-04T22:06:06.361Z,4.90
2017-07-04T22:08:35.340Z,3.57
2017-07-04T22:11:04.605Z,5.67
2017-07-04T22:13:33.636Z,3.80
2017-07-04T22:16:02.742Z,3.93
2017-07-04T22:18:31.741Z,3.87
2017-07-04T22:21:00.710Z,4.73
2017-07-04T22:23:29.697Z,3.33
2017-07-04T22:25:58.653Z,3.03
2017-07-04T22:28:27.662Z,3.53
2017-07-04T22:30:56.698Z,4.18
2017-07-04T22:33:25.680Z,6.65
2017-07-04T22:35:54.739Z,3.42
2017-07-04T22:38:23.783Z,3.25
2017-07-04T22:40:52.784Z,3.87
2017-07-04T22:43:21.767Z,3.17
2017-07-04T22:45:50.752Z,4.80
2017-07-04T22:48:20.055Z,2.43
2017-07-04T22:50:49.063Z,3.03
2017-07-04T22:53:19.447Z,3.67
2017-07-04T22:55:48.467Z,3.75
2017-07-04T22:58:17.434Z,2.50
2017-07-04T23:00:46.439Z,3.60
2017-07-04T23:03:15.580Z,4.65
2017-07-04T23:05:44.617Z,4.10
2017-07-04T23:08:13.633Z,2.50
2017-07-04T23:10:42.766Z,4.05
2017-07-04T23:13:11.735Z,3.10
2017-07-04T23:15:40.792Z,3.40
2017-07-04T23:18:09.814Z,3.85
2017-07-04T23:20:38.785Z,2.10
2017-07-04T23:23:07.762Z,2.10
2017-07-04T23:25:36.783Z,3.30
2017-07-04T23:28:05.748Z,2.33
2017-07-04T23:30:34.736Z,4.90
2017-07-04T23:33:06.631Z,2.92
2017-07-04T23:35:35.610Z,3.95
2017-07-04T23:38:04.626Z,3.47
2017-07-04T23:40:33.858Z,4.70
2017-07-04T23:43:03.102Z,2.60
2017-07-04T23:45:32.245Z,2.37
2017-07-04T23:48:01.361Z,3.45
2017-07-04T23:50:30.415Z,2.40
2017-07-04T23:52:59.499Z,3.40
2017-07-04T23:55:28.499Z,3.15
2017-07-04T23:57:57.492Z,1.95
